createdAt,value
2018-03-22T00:04:43.539Z,0.20
2018-03-22T00:09:46.509Z,0.20
2018-03-22T00:14:50.282Z,0.10
2018-03-22T00:19:55.371Z,0.10
2018-03-22T00:25:00.199Z,0.10
2018-03-22T00:30:04.902Z,0.10
2018-03-22T00:35:07.911Z,0.00
2018-03-22T00:40:10.984Z,0.00
2018-03-22T00:45:14.324Z,-0.10
2018-03-22T00:50:17.836Z,-0.10
2018-03-22T00:55:20.856Z,-0.10
2018-03-22T01:00:23.969Z,-0.20
2018-03-22T01:05:27.140Z,-0.20
2018-03-22T01:10:30.140Z,-0.10
2018-03-22T01:15:33.092Z,-0.20
2018-03-22T01:20:36.060Z,-0.10
2018-03-22T01:25:41.406Z,-0.10
2018-03-22T01:30:44.816Z,-0.20
2018-03-22T01:35:47.769Z,0.00
2018-03-22T01:40:51.742Z,-0.10
2018-03-22T01:45:54.719Z,-0.10
2018-03-22T01:50:59.059Z,-0.10
2018-03-22T01:56:04.547Z,0.00
2018-03-22T02:01:08.369Z,0.00
2018-03-22T02:06:11.197Z,-0.10
2018-03-22T02:11:14.125Z,0.00
2018-03-22T02:16:16.996Z,0.10
2018-03-22T02:21:19.852Z,0.10
2018-03-22T02:26:23.150Z,0.20
2018-03-22T02:31:25.963Z,0.30
2018-03-22T02:36:30.363Z,0.40
2018-03-22T02:41:39.080Z,0.30
2018-03-22T02:46:41.890Z,0.40
2018-03-22T02:51:44.650Z,0.50
2018-03-22T02:56:47.962Z,0.60
2018-03-22T03:01:51.295Z,0.80
2018-03-22T03:06:54.518Z,1.00
2018-03-22T03:11:57.300Z,1.10
2018-03-22T03:17:00.077Z,1.30
2018-03-22T03:22:02.934Z,1.40
2018-03-22T03:27:05.707Z,1.50
2018-03-22T03:32:08.770Z,1.50
2018-03-22T03:37:12.290Z,1.40
2018-03-22T03:42:15.230Z,1.30
2018-03-22T03:47:18.257Z,1.50
2018-03-22T03:52:22.433Z,1.50
2018-03-22T03:57:25.370Z,1.60
2018-03-22T04:02:31.193Z,1.80
2018-03-22T04:07:36.086Z,1.80
2018-03-22T04:12:38.889Z,1.70
2018-03-22T04:17:41.660Z,1.80
2018-03-22T04:22:50.689Z,1.80
2018-03-22T04:27:53.490Z,1.80
2018-03-22T04:32:56.338Z,1.80
2018-03-22T04:38:01.130Z,1.80
2018-03-22T04:43:04.041Z,1.60
2018-03-22T04:48:07.101Z,1.60
2018-03-22T04:53:09.883Z,1.70
2018-03-22T04:58:12.670Z,1.70
2018-03-22T05:03:15.541Z,1.80
2018-03-22T05:08:18.374Z,1.80
2018-03-22T05:13:21.398Z,1.80
2018-03-22T05:18:24.831Z,1.70
2018-03-22T05:23:28.845Z,1.90
2018-03-22T05:28:31.620Z,1.80
2018-03-22T05:33:34.412Z,1.90
2018-03-22T05:38:38.355Z,1.80
2018-03-22T05:43:41.096Z,2.00
2018-03-22T05:48:44.404Z,2.00
2018-03-22T05:53:47.994Z,2.00
2018-03-22T05:58:50.985Z,1.90
2018-03-22T06:03:53.780Z,2.10
2018-03-22T06:08:56.566Z,2.10
2018-03-22T06:13:59.420Z,2.00
2018-03-22T06:19:03.036Z,2.20
2018-03-22T06:24:06.234Z,2.10
2018-03-22T06:29:09.872Z,2.20
2018-03-22T06:34:14.618Z,2.10
2018-03-22T06:39:17.456Z,2.20
2018-03-22T06:44:20.225Z,2.30
2018-03-22T06:49:23.027Z,2.50
2018-03-22T06:54:25.831Z,2.40
2018-03-22T06:59:28.613Z,2.50
2018-03-22T07:04:31.820Z,2.60
2018-03-22T07:09:34.588Z,2.80
2018-03-22T07:14:38.172Z,3.10
2018-03-22T07:19:41.054Z,3.00
2018-03-22T07:24:43.839Z,3.20
2018-03-22T07:29:46.634Z,3.30
2018-03-22T07:34:50.406Z,3.30
2018-03-22T07:39:53.314Z,3.60
2018-03-22T07:44:56.136Z,3.60
2018-03-22T07:49:58.993Z,3.80
2018-03-22T07:55:01.767Z,3.90
2018-03-22T08:00:06.529Z,4.00
2018-03-22T08:05:10.429Z,4.20
2018-03-22T08:10:13.277Z,4.20
2018-03-22T08:15:20.861Z,4.30
2018-03-22T08:20:23.687Z,4.30
2018-03-22T08:25:29.964Z,4.20
2018-03-22T08:30:32.790Z,4.40
2018-03-22T08:35:37.281Z,4.50
2018-03-22T08:40:40.075Z,4.40
2018-03-22T08:45:42.901Z,4.60
2018-03-22T08:50:45.741Z,4.60
2018-03-22T08:55:48.511Z,4.60
2018-03-22T09:00:51.258Z,4.50
2018-03-22T09:05:54.146Z,4.30
2018-03-22T09:10:57.090Z,4.20
2018-03-22T09:16:00.949Z,4.10
2018-03-22T09:21:04.702Z,4.00
2018-03-22T09:26:09.429Z,3.90
2018-03-22T09:31:12.306Z,3.90
2018-03-22T09:36:15.925Z,3.60
2018-03-22T09:41:19.535Z,3.40
2018-03-22T09:46:23.356Z,3.30
2018-03-22T09:51:27.558Z,3.40
2018-03-22T09:56:36.182Z,3.40
2018-03-22T10:01:39.286Z,3.30
2018-03-22T10:06:42.063Z,2.90
2018-03-22T10:11:44.895Z,2.80
2018-03-22T10:16:48.745Z,2.90
2018-03-22T10:21:51.607Z,3.10
2018-03-22T10:26:54.447Z,3.00
2018-03-22T10:31:58.499Z,3.20
2018-03-22T10:37:02.223Z,3.10
2018-03-22T10:42:06.809Z,3.10
2018-03-22T10:47:11.486Z,3.10
2018-03-22T10:52:14.549Z,3.00
2018-03-22T10:57:17.816Z,2.90
2018-03-22T11:02:27.383Z,2.90
2018-03-22T11:07:34.078Z,3.00
2018-03-22T11:12:42.171Z,2.90
2018-03-22T11:17:47.440Z,3.10
2018-03-22T11:22:51.583Z,3.20
2018-03-22T11:27:54.994Z,3.10
2018-03-22T11:32:58.322Z,3.20
2018-03-22T11:38:01.621Z,3.10
2018-03-22T11:43:04.857Z,3.10
2018-03-22T11:48:09.298Z,3.10
2018-03-22T11:53:15.785Z,3.10
2018-03-22T11:58:24.829Z,3.00
2018-03-22T12:03:45.446Z,3.20
2018-03-22T12:08:55.754Z,3.20
2018-03-22T12:13:58.620Z,3.20
2018-03-22T12:19:01.431Z,3.20
2018-03-22T12:24:04.324Z,3.10
2018-03-22T12:29:15.179Z,3.20
2018-03-22T12:34:18.306Z,2.90
2018-03-22T12:39:23.056Z,3.20
2018-03-22T12:44:26.964Z,3.20
2018-03-22T12:49:30.094Z,3.30
2018-03-22T12:54:32.950Z,3.30
2018-03-22T12:59:42.304Z,3.40
2018-03-22T13:04:49.641Z,3.50
2018-03-22T13:09:53.655Z,3.40
2018-03-22T13:14:58.576Z,3.60
2018-03-22T13:20:02.124Z,3.50
2018-03-22T13:25:08.916Z,3.50
2018-03-22T13:30:11.804Z,3.50
2018-03-22T13:35:14.706Z,3.50
2018-03-22T13:40:24.773Z,3.50
2018-03-22T13:45:27.610Z,3.40
2018-03-22T13:50:37.016Z,3.50
2018-03-22T13:55:40.841Z,3.60
2018-03-22T14:00:43.758Z,3.50
2018-03-22T14:05:46.546Z,3.70
2018-03-22T14:10:49.411Z,3.80
2018-03-22T14:15:52.339Z,3.80
2018-03-22T14:20:55.282Z,3.90
2018-03-22T14:25:58.326Z,4.00
2018-03-22T14:31:01.132Z,4.00
2018-03-22T14:36:08.121Z,3.90
2018-03-22T14:41:11.252Z,3.80
2018-03-22T14:46:18.541Z,4.00
2018-03-22T14:51:26.173Z,4.00
2018-03-22T14:56:31.077Z,3.90
2018-03-22T15:01:34.193Z,4.00
2018-03-22T15:06:37.925Z,4.30
2018-03-22T15:11:42.532Z,4.30
2018-03-22T15:16:45.662Z,4.30
2018-03-22T15:21:54.748Z,4.50
2018-03-22T15:26:58.549Z,4.50
2018-03-22T15:32:01.535Z,4.50
2018-03-22T15:37:05.493Z,4.60
2018-03-22T15:42:09.349Z,4.50
2018-03-22T15:47:12.589Z,4.50
2018-03-22T15:52:16.097Z,4.50
2018-03-22T15:57:18.965Z,4.30
2018-03-22T16:02:22.871Z,4.40
2018-03-22T16:07:32.288Z,4.40
2018-03-22T16:12:47.695Z,4.50
2018-03-22T16:17:51.390Z,4.50
2018-03-22T16:22:54.357Z,4.40
2018-03-22T16:28:01.061Z,4.50
2018-03-22T16:33:04.184Z,4.60
2018-03-22T16:38:07.385Z,4.50
2018-03-22T16:43:11.622Z,4.30
2018-03-22T16:48:14.650Z,4.30
2018-03-22T16:53:17.475Z,4.40
2018-03-22T16:58:20.451Z,4.40
2018-03-22T17:03:27.033Z,4.30
2018-03-22T17:08:56.037Z,4.30
2018-03-22T17:13:59.025Z,4.20
2018-03-22T17:19:01.933Z,4.10
2018-03-22T17:24:05.598Z,4.20
2018-03-22T17:29:14.369Z,4.10
2018-03-22T17:34:17.792Z,4.20
2018-03-22T17:39:21.533Z,4.30
2018-03-22T17:44:29.316Z,4.20
2018-03-22T17:49:40.076Z,4.20
2018-03-22T17:54:43.017Z,4.30
2018-03-22T17:59:49.459Z,4.20
2018-03-22T18:04:53.141Z,4.10
2018-03-22T18:09:56.529Z,4.20
2018-03-22T18:14:59.455Z,4.30
2018-03-22T18:20:02.789Z,4.10
2018-03-22T18:25:11.651Z,4.10
2018-03-22T18:30:14.711Z,4.20
2018-03-22T18:35:17.708Z,4.30
2018-03-22T18:40:22.387Z,4.30
2018-03-22T18:45:29.397Z,4.30
2018-03-22T18:50:32.674Z,4.30
2018-03-22T18:55:35.658Z,4.10
2018-03-22T19:00:39.203Z,4.10
2018-03-22T19:05:43.444Z,4.20
2018-03-22T19:10:57.405Z,4.30
2018-03-22T19:16:12.754Z,4.20
2018-03-22T19:21:30.111Z,4.30
2018-03-22T19:26:48.148Z,4.20
2018-03-22T19:31:50.969Z,4.10
2018-03-22T19:36:53.970Z,4.30
2018-03-22T19:42:12.235Z,4.30
2018-03-22T19:47:16.405Z,4.20
2018-03-22T19:52:20.414Z,4.30
2018-03-22T19:57:24.928Z,4.10
2018-03-22T20:02:28.930Z,4.10
2018-03-22T20:07:32.824Z,4.10
2018-03-22T20:12:35.701Z,4.10
2018-03-22T20:17:40.639Z,4.20
2018-03-22T20:22:48.594Z,4.10
2018-03-22T20:27:54.723Z,4.20
2018-03-22T20:32:58.286Z,4.10
2018-03-22T20:38:03.887Z,4.30
2018-03-22T20:43:07.652Z,4.30
2018-03-22T20:48:12.105Z,4.60
2018-03-22T20:53:17.078Z,4.50
2018-03-22T20:58:22.369Z,4.50
2018-03-22T21:03:31.439Z,4.50
2018-03-22T21:08:35.363Z,4.40
2018-03-22T21:13:40.705Z,4.50
2018-03-22T21:18:44.994Z,4.50
2018-03-22T21:23:48.468Z,4.50
2018-03-22T21:28:52.149Z,4.60
2018-03-22T21:33:59.296Z,4.70
2018-03-22T21:39:03.380Z,4.40
2018-03-22T21:44:15.234Z,4.30
2018-03-22T21:49:18.898Z,4.50
2018-03-22T21:54:21.737Z,4.40
2018-03-22T21:59:24.768Z,4.60
2018-03-22T22:04:28.492Z,4.70
2018-03-22T22:09:33.098Z,4.80
2018-03-22T22:14:38.218Z,4.80
2018-03-22T22:19:43.254Z,4.80
2018-03-22T22:24:52.173Z,4.70
2018-03-22T22:29:56.536Z,4.50
2018-03-22T22:35:10.316Z,4.50
2018-03-22T22:40:14.246Z,4.60
2018-03-22T22:45:19.534Z,4.70
2018-03-22T22:56:02.339Z,4.70
2018-03-22T23:01:05.574Z,4.70
2018-03-22T23:06:08.949Z,4.50
2018-03-22T23:11:13.327Z,4.40
2018-03-22T23:16:17.886Z,4.40
2018-03-22T23:21:21.204Z,4.40
2018-03-22T23:26:25.044Z,4.50
2018-03-22T23:31:28.935Z,4.60
2018-03-22T23:36:31.818Z,4.50
2018-03-22T23:41:34.647Z,4.50
2018-03-22T23:46:37.485Z,4.40
2018-03-22T23:51:40.348Z,4.40
2018-03-22T23:56:45.327Z,4.40
